sensor_id;sensor_type;location;lat;lon;timestamp;pressure;altitude;pressure_sealevel;temperature;humidity
59170;BME280;52474;52.236;5.114;2023-04-28T00:02:01;101446.31;;;8.34;100.00
59170;BME280;52474;52.236;5.114;2023-04-28T00:04:27;101438.59;;;8.31;100.00
59170;BME280;52474;52.236;5.114;2023-04-28T00:06:53;101417.16;;;8.23;100.00
59170;BME280;52474;52.236;5.114;2023-04-28T00:09:19;101423.59;;;8.31;100.00
59170;BME280;52474;52.236;5.114;2023-04-28T00:11:44;101420.97;;;8.31;100.00
59170;BME280;52474;52.236;5.114;2023-04-28T00:14:12;101412.22;;;8.31;100.00
59170;BME280;52474;52.236;5.114;2023-04-28T00:16:38;101393.72;;;8.18;100.00
59170;BME280;52474;52.236;5.114;2023-04-28T00:19:03;101406.19;;;8.29;100.00
59170;BME280;52474;52.236;5.114;2023-04-28T00:21:30;101409.03;;;8.26;100.00
59170;BME280;52474;52.236;5.114;2023-04-28T00:23:56;101400.38;;;8.24;100.00
59170;BME280;52474;52.236;5.114;2023-04-28T00:26:22;101391.16;;;8.16;100.00
59170;BME280;52474;52.236;5.114;2023-04-28T00:28:48;101398.91;;;8.20;100.00
59170;BME280;52474;52.236;5.114;2023-04-28T00:31:15;101392.00;;;8.17;100.00
59170;BME280;52474;52.236;5.114;2023-04-28T00:33:42;101392.88;;;8.17;100.00
59170;BME280;52474;52.236;5.114;2023-04-28T00:36:08;101390.34;;;8.16;100.00
59170;BME280;52474;52.236;5.114;2023-04-28T00:38:36;101381.44;;;8.04;100.00
59170;BME280;52474;52.236;5.114;2023-04-28T00:41:02;101399.31;;;8.13;100.00
59170;BME280;52474;52.236;5.114;2023-04-28T00:43:28;101390.41;;;8.14;100.00
59170;BME280;52474;52.236;5.114;2023-04-28T00:45:54;101375.75;;;8.10;100.00
59170;BME280;52474;52.236;5.114;2023-04-28T00:48:20;101388.44;;;8.18;100.00
59170;BME280;52474;52.236;5.114;2023-04-28T00:50:47;101377.88;;;8.18;100.00
59170;BME280;52474;52.236;5.114;2023-04-28T00:53:13;101362.22;;;8.02;100.00
59170;BME280;52474;52.236;5.114;2023-04-28T00:55:39;101372.81;;;8.15;100.00
59170;BME280;52474;52.236;5.114;2023-04-28T00:58:05;101365.84;;;8.14;100.00
59170;BME280;52474;52.236;5.114;2023-04-28T01:00:32;101354.66;;;8.10;100.00
59170;BME280;52474;52.236;5.114;2023-04-28T01:02:58;101329.94;;;7.99;100.00
59170;BME280;52474;52.236;5.114;2023-04-28T01:05:25;101338.72;;;8.12;100.00
59170;BME280;52474;52.236;5.114;2023-04-28T01:07:51;101346.00;;;8.08;100.00
59170;BME280;52474;52.236;5.114;2023-04-28T01:10:18;101334.78;;;7.92;100.00
59170;BME280;52474;52.236;5.114;2023-04-28T01:12:44;101353.59;;;8.00;100.00
59170;BME280;52474;52.236;5.114;2023-04-28T01:15:15;101310.97;;;7.66;100.00
59170;BME280;52474;52.236;5.114;2023-04-28T01:17:42;101360.84;;;7.96;100.00
59170;BME280;52474;52.236;5.114;2023-04-28T01:20:08;101338.88;;;7.83;100.00
59170;BME280;52474;52.236;5.114;2023-04-28T01:22:34;101340.34;;;7.87;100.00
59170;BME280;52474;52.236;5.114;2023-04-28T01:25:01;101352.47;;;7.90;100.00
59170;BME280;52474;52.236;5.114;2023-04-28T01:27:28;101345.53;;;7.89;100.00
59170;BME280;52474;52.236;5.114;2023-04-28T01:29:54;101327.50;;;7.83;100.00
59170;BME280;52474;52.236;5.114;2023-04-28T01:32:20;101343.63;;;7.91;100.00
59170;BME280;52474;52.236;5.114;2023-04-28T01:34:46;101305.72;;;7.79;100.00
59170;BME280;52474;52.236;5.114;2023-04-28T01:37:12;101326.03;;;7.91;100.00
59170;BME280;52474;52.236;5.114;2023-04-28T01:39:37;101315.56;;;7.90;100.00
59170;BME280;52474;52.236;5.114;2023-04-28T01:42:03;101295.63;;;7.73;100.00
59170;BME280;52474;52.236;5.114;2023-04-28T01:44:29;101317.28;;;7.91;100.00
59170;BME280;52474;52.236;5.114;2023-04-28T01:46:54;101308.53;;;7.90;100.00
59170;BME280;52474;52.236;5.114;2023-04-28T01:49:20;101295.94;;;7.81;100.00
59170;BME280;52474;52.236;5.114;2023-04-28T01:51:46;101299.53;;;7.80;100.00
59170;BME280;52474;52.236;5.114;2023-04-28T01:54:12;101299.13;;;7.86;100.00
59170;BME280;52474;52.236;5.114;2023-04-28T01:56:38;101296.25;;;7.89;100.00
59170;BME280;52474;52.236;5.114;2023-04-28T01:59:05;101296.38;;;7.88;100.00
59170;BME280;52474;52.236;5.114;2023-04-28T02:01:32;101274.41;;;7.74;100.00
59170;BME280;52474;52.236;5.114;2023-04-28T02:03:59;101264.91;;;7.72;100.00
59170;BME280;52474;52.236;5.114;2023-04-28T02:06:25;101291.72;;;7.91;100.00
59170;BME280;52474;52.236;5.114;2023-04-28T02:08:52;101293.53;;;7.91;100.00
59170;BME280;52474;52.236;5.114;2023-04-28T02:11:17;101296.16;;;7.91;100.00
59170;BME280;52474;52.236;5.114;2023-04-28T02:13:43;101282.53;;;7.84;100.00
59170;BME280;52474;52.236;5.114;2023-04-28T02:16:09;101282.97;;;7.91;100.00
59170;BME280;52474;52.236;5.114;2023-04-28T02:18:35;101277.72;;;7.91;100.00
59170;BME280;52474;52.236;5.114;2023-04-28T02:21:08;101254.06;;;7.77;100.00
59170;BME280;52474;52.236;5.114;2023-04-28T02:23:35;101251.41;;;7.77;100.00
59170;BME280;52474;52.236;5.114;2023-04-28T02:26:04;101277.72;;;7.91;100.00
59170;BME280;52474;52.236;5.114;2023-04-28T02:28:30;101273.38;;;7.90;100.00
59170;BME280;52474;52.236;5.114;2023-04-28T02:31:06;101273.50;;;7.88;100.00
59170;BME280;52474;52.236;5.114;2023-04-28T02:33:33;101275.38;;;7.86;100.00
59170;BME280;52474;52.236;5.114;2023-04-28T02:36:00;101264.75;;;7.88;100.00
59170;BME280;52474;52.236;5.114;2023-04-28T02:38:26;101243.59;;;7.75;100.00
59170;BME280;52474;52.236;5.114;2023-04-28T02:40:59;101253.53;;;7.84;100.00
59170;BME280;52474;52.236;5.114;2023-04-28T02:43:26;101250.28;;;7.81;100.00
59170;BME280;52474;52.236;5.114;2023-04-28T02:45:53;101246.47;;;7.85;100.00
59170;BME280;52474;52.236;5.114;2023-04-28T02:48:19;101256.06;;;7.86;100.00
59170;BME280;52474;52.236;5.114;2023-04-28T02:50:45;101240.56;;;7.81;100.00
59170;BME280;52474;52.236;5.114;2023-04-28T02:53:11;101253.44;;;7.86;100.00
59170;BME280;52474;52.236;5.114;2023-04-28T02:55:37;101239.50;;;7.84;100.00
59170;BME280;52474;52.236;5.114;2023-04-28T02:58:03;101232.66;;;7.81;100.00
59170;BME280;52474;52.236;5.114;2023-04-28T03:00:29;101225.88;;;7.77;100.00
59170;BME280;52474;52.236;5.114;2023-04-28T03:02:55;101225.06;;;7.77;100.00
59170;BME280;52474;52.236;5.114;2023-04-28T03:05:21;101208.91;;;7.68;100.00
59170;BME280;52474;52.236;5.114;2023-04-28T03:07:46;101193.81;;;7.58;100.00
59170;BME280;52474;52.236;5.114;2023-04-28T03:10:12;101217.88;;;7.66;100.00
59170;BME280;52474;52.236;5.114;2023-04-28T03:12:38;101221.44;;;7.65;100.00
59170;BME280;52474;52.236;5.114;2023-04-28T03:15:05;101216.91;;;7.67;100.00
59170;BME280;52474;52.236;5.114;2023-04-28T03:17:34;101206.28;;;7.68;100.00
59170;BME280;52474;52.236;5.114;2023-04-28T03:20:07;101210.59;;;7.69;100.00
59170;BME280;52474;52.236;5.114;2023-04-28T03:22:33;101186.34;;;7.64;100.00
59170;BME280;52474;52.236;5.114;2023-04-28T03:24:59;101172.00;;;7.68;100.00
59170;BME280;52474;52.236;5.114;2023-04-28T03:27:27;101176.44;;;7.68;100.00
59170;BME280;52474;52.236;5.114;2023-04-28T03:29:54;101160.19;;;7.61;100.00
59170;BME280;52474;52.236;5.114;2023-04-28T03:32:20;101167.97;;;7.63;100.00
59170;BME280;52474;52.236;5.114;2023-04-28T03:34:45;101162.19;;;7.58;100.00
59170;BME280;52474;52.236;5.114;2023-04-28T03:37:11;101163.66;;;7.62;100.00
59170;BME280;52474;52.236;5.114;2023-04-28T03:39:38;101156.72;;;7.61;100.00
59170;BME280;52474;52.236;5.114;2023-04-28T03:42:04;101150.69;;;7.59;100.00
59170;BME280;52474;52.236;5.114;2023-04-28T03:44:52;101151.09;;;7.52;100.00
59170;BME280;52474;52.236;5.114;2023-04-28T03:47:18;101124.44;;;7.44;100.00
59170;BME280;52474;52.236;5.114;2023-04-28T03:49:44;101146.47;;;7.56;100.00
59170;BME280;52474;52.236;5.114;2023-04-28T03:52:10;101143.94;;;7.55;100.00
59170;BME280;52474;52.236;5.114;2023-04-28T03:54:36;101125.50;;;7.42;100.00
59170;BME280;52474;52.236;5.114;2023-04-28T03:57:02;101118.63;;;7.39;100.00
59170;BME280;52474;52.236;5.114;2023-04-28T03:59:31;101134.53;;;7.50;100.00
59170;BME280;52474;52.236;5.114;2023-04-28T04:01:57;101142.34;;;7.52;100.00
59170;BME280;52474;52.236;5.114;2023-04-28T04:04:23;101133.81;;;7.48;100.00
59170;BME280;52474;52.236;5.114;2023-04-28T04:06:49;101135.59;;;7.48;100.00
59170;BME280;52474;52.236;5.114;2023-04-28T04:09:15;101127.06;;;7.44;100.00
59170;BME280;52474;52.236;5.114;2023-04-28T04:11:42;101132.78;;;7.51;100.00
59170;BME280;52474;52.236;5.114;2023-04-28T04:14:07;101131.91;;;7.50;100.00
59170;BME280;52474;52.236;5.114;2023-04-28T04:16:35;101130.97;;;7.51;100.00
59170;BME280;52474;52.236;5.114;2023-04-28T04:19:02;101111.56;;;7.40;100.00
59170;BME280;52474;52.236;5.114;2023-04-28T04:21:34;101118.19;;;7.45;100.00
59170;BME280;52474;52.236;5.114;2023-04-28T04:24:03;101131.72;;;7.53;100.00
59170;BME280;52474;52.236;5.114;2023-04-28T04:26:28;101118.31;;;7.44;100.00
59170;BME280;52474;52.236;5.114;2023-04-28T04:28:55;101126.16;;;7.58;100.00
59170;BME280;52474;52.236;5.114;2023-04-28T04:31:21;101134.75;;;7.60;100.00
59170;BME280;52474;52.236;5.114;2023-04-28T04:33:47;101132.03;;;7.62;100.00
59170;BME280;52474;52.236;5.114;2023-04-28T04:36:15;101120.53;;;7.63;100.00
59170;BME280;52474;52.236;5.114;2023-04-28T04:38:41;101127.81;;;7.72;100.00
59170;BME280;52474;52.236;5.114;2023-04-28T04:41:14;101075.09;;;7.46;100.00
59170;BME280;52474;52.236;5.114;2023-04-28T04:43:40;101117.69;;;7.79;100.00
59170;BME280;52474;52.236;5.114;2023-04-28T04:46:06;101098.28;;;7.67;100.00
59170;BME280;52474;52.236;5.114;2023-04-28T04:48:32;101106.31;;;7.78;100.00
59170;BME280;52474;52.236;5.114;2023-04-28T04:50:59;101104.06;;;7.85;100.00
59170;BME280;52474;52.236;5.114;2023-04-28T04:53:25;101097.53;;;7.90;100.00
59170;BME280;52474;52.236;5.114;2023-04-28T04:55:52;101098.25;;;7.92;100.00
59170;BME280;52474;52.236;5.114;2023-04-28T04:58:18;101099.22;;;7.91;100.00
59170;BME280;52474;52.236;5.114;2023-04-28T05:01:15;101105.47;;;7.90;100.00
59170;BME280;52474;52.236;5.114;2023-04-28T05:03:41;101095.00;;;7.89;100.00
59170;BME280;52474;52.236;5.114;2023-04-28T05:06:07;101092.28;;;7.90;100.00
59170;BME280;52474;52.236;5.114;2023-04-28T05:08:42;101100.78;;;7.94;100.00
59170;BME280;52474;52.236;5.114;2023-04-28T05:11:08;101103.53;;;7.92;100.00
59170;BME280;52474;52.236;5.114;2023-04-28T05:13:34;101102.50;;;7.95;100.00
59170;BME280;52474;52.236;5.114;2023-04-28T05:16:01;101092.81;;;7.83;100.00
59170;BME280;52474;52.236;5.114;2023-04-28T05:18:37;101107.97;;;7.92;100.00
59170;BME280;52474;52.236;5.114;2023-04-28T05:21:03;101086.59;;;7.71;100.00
59170;BME280;52474;52.236;5.114;2023-04-28T05:23:28;101132.34;;;7.95;100.00
59170;BME280;52474;52.236;5.114;2023-04-28T05:25:54;101110.41;;;7.82;100.00
59170;BME280;52474;52.236;5.114;2023-04-28T05:28:20;101108.28;;;7.87;100.00
59170;BME280;52474;52.236;5.114;2023-04-28T05:30:46;101109.25;;;7.86;100.00
59170;BME280;52474;52.236;5.114;2023-04-28T05:33:13;101104.09;;;7.72;100.00
59170;BME280;52474;52.236;5.114;2023-04-28T05:35:39;101103.66;;;7.65;100.00
59170;BME280;52474;52.236;5.114;2023-04-28T05:38:05;101106.13;;;7.56;100.00
59170;BME280;52474;52.236;5.114;2023-04-28T05:40:31;101095.66;;;7.54;100.00
59170;BME280;52474;52.236;5.114;2023-04-28T05:42:57;101109.47;;;7.58;100.00
59170;BME280;52474;52.236;5.114;2023-04-28T05:45:23;101094.38;;;7.60;100.00
59170;BME280;52474;52.236;5.114;2023-04-28T05:47:49;101074.88;;;7.49;100.00
59170;BME280;52474;52.236;5.114;2023-04-28T05:50:16;101049.38;;;7.50;100.00
59170;BME280;52474;52.236;5.114;2023-04-28T05:52:42;101057.25;;;7.63;100.00
59170;BME280;52474;52.236;5.114;2023-04-28T05:55:08;101039.38;;;7.68;100.00
59170;BME280;52474;52.236;5.114;2023-04-28T05:57:35;101033.22;;;7.80;100.00
59170;BME280;52474;52.236;5.114;2023-04-28T06:00:01;101030.28;;;7.72;100.00
59170;BME280;52474;52.236;5.114;2023-04-28T06:02:29;100997.00;;;7.58;100.00
59170;BME280;52474;52.236;5.114;2023-04-28T06:04:55;101036.50;;;7.71;100.00
59170;BME280;52474;52.236;5.114;2023-04-28T06:07:21;101033.09;;;7.82;100.00
59170;BME280;52474;52.236;5.114;2023-04-28T06:09:47;101028.47;;;7.85;100.00
59170;BME280;52474;52.236;5.114;2023-04-28T06:12:14;101035.41;;;7.86;100.00
59170;BME280;52474;52.236;5.114;2023-04-28T06:14:39;101037.41;;;7.95;100.00
59170;BME280;52474;52.236;5.114;2023-04-28T06:17:05;101036.03;;;8.03;100.00
59170;BME280;52474;52.236;5.114;2023-04-28T06:19:30;101053.81;;;8.12;100.00
59170;BME280;52474;52.236;5.114;2023-04-28T06:21:56;101054.31;;;8.17;100.00
59170;BME280;52474;52.236;5.114;2023-04-28T06:24:22;101052.53;;;8.17;100.00
59170;BME280;52474;52.236;5.114;2023-04-28T06:26:49;101069.81;;;8.22;100.00
59170;BME280;52474;52.236;5.114;2023-04-28T06:29:14;101071.84;;;8.18;100.00
59170;BME280;52474;52.236;5.114;2023-04-28T06:31:40;101079.66;;;8.20;100.00
59170;BME280;52474;52.236;5.114;2023-04-28T06:34:06;101081.28;;;8.33;100.00
59170;BME280;52474;52.236;5.114;2023-04-28T06:36:34;101086.16;;;8.40;100.00
59170;BME280;52474;52.236;5.114;2023-04-28T06:39:06;101081.72;;;8.40;100.00
59170;BME280;52474;52.236;5.114;2023-04-28T06:41:34;101072.66;;;8.44;100.00
59170;BME280;52474;52.236;5.114;2023-04-28T06:44:01;101069.88;;;8.70;100.00
59170;BME280;52474;52.236;5.114;2023-04-28T06:46:28;101016.91;;;8.60;100.00
59170;BME280;52474;52.236;5.114;2023-04-28T06:48:55;101065.72;;;9.14;100.00
59170;BME280;52474;52.236;5.114;2023-04-28T06:51:21;101057.97;;;9.46;100.00
59170;BME280;52474;52.236;5.114;2023-04-28T06:53:48;101046.53;;;9.57;100.00
59170;BME280;52474;52.236;5.114;2023-04-28T06:56:17;101048.94;;;10.05;100.00
59170;BME280;52474;52.236;5.114;2023-04-28T06:58:44;101063.16;;;9.93;100.00
59170;BME280;52474;52.236;5.114;2023-04-28T07:01:10;101068.91;;;9.64;100.00
59170;BME280;52474;52.236;5.114;2023-04-28T07:03:36;101031.91;;;9.53;100.00
59170;BME280;52474;52.236;5.114;2023-04-28T07:06:03;101062.78;;;9.63;100.00
59170;BME280;52474;52.236;5.114;2023-04-28T07:08:30;101051.84;;;9.68;100.00
59170;BME280;52474;52.236;5.114;2023-04-28T07:10:56;101067.81;;;9.89;100.00
59170;BME280;52474;52.236;5.114;2023-04-28T07:13:22;101063.00;;;10.05;100.00
59170;BME280;52474;52.236;5.114;2023-04-28T07:15:48;101045.31;;;10.06;100.00
59170;BME280;52474;52.236;5.114;2023-04-28T07:18:17;101057.81;;;10.15;100.00
59170;BME280;52474;52.236;5.114;2023-04-28T07:20:43;101053.34;;;10.16;100.00
59170;BME280;52474;52.236;5.114;2023-04-28T07:23:08;101032.22;;;10.04;100.00
59170;BME280;52474;52.236;5.114;2023-04-28T07:25:35;101054.19;;;10.39;100.00
59170;BME280;52474;52.236;5.114;2023-04-28T07:28:02;101047.66;;;10.75;100.00
59170;BME280;52474;52.236;5.114;2023-04-28T07:30:28;101024.53;;;10.56;100.00
59170;BME280;52474;52.236;5.114;2023-04-28T07:32:54;101032.34;;;10.58;100.00
59170;BME280;52474;52.236;5.114;2023-04-28T07:35:20;101036.63;;;10.70;100.00
59170;BME280;52474;52.236;5.114;2023-04-28T07:37:46;101034.94;;;10.69;100.00
59170;BME280;52474;52.236;5.114;2023-04-28T07:40:12;101037.38;;;10.61;100.00
59170;BME280;52474;52.236;5.114;2023-04-28T07:42:38;101050.53;;;10.83;100.00
59170;BME280;52474;52.236;5.114;2023-04-28T07:45:05;101042.91;;;11.32;100.00
59170;BME280;52474;52.236;5.114;2023-04-28T07:47:31;101035.81;;;11.32;100.00
59170;BME280;52474;52.236;5.114;2023-04-28T07:49:57;101037.25;;;11.46;100.00
59170;BME280;52474;52.236;5.114;2023-04-28T07:52:25;101037.44;;;11.54;100.00
59170;BME280;52474;52.236;5.114;2023-04-28T07:54:51;101040.28;;;11.42;100.00
59170;BME280;52474;52.236;5.114;2023-04-28T07:57:17;101027.84;;;11.11;100.00
59170;BME280;52474;52.236;5.114;2023-04-28T07:59:46;101036.44;;;11.25;100.00
59170;BME280;52474;52.236;5.114;2023-04-28T08:02:12;101039.34;;;11.22;100.00
59170;BME280;52474;52.236;5.114;2023-04-28T08:04:39;101027.91;;;11.21;100.00
59170;BME280;52474;52.236;5.114;2023-04-28T08:07:05;101012.03;;;11.00;100.00
59170;BME280;52474;52.236;5.114;2023-04-28T08:09:31;101032.31;;;11.11;100.00
59170;BME280;52474;52.236;5.114;2023-04-28T08:11:57;101031.72;;;11.07;100.00
59170;BME280;52474;52.236;5.114;2023-04-28T08:14:23;101016.56;;;10.88;100.00
59170;BME280;52474;52.236;5.114;2023-04-28T08:16:50;101030.31;;;11.03;100.00
59170;BME280;52474;52.236;5.114;2023-04-28T08:19:16;101040.34;;;11.21;100.00
59170;BME280;52474;52.236;5.114;2023-04-28T08:21:42;101044.34;;;11.15;100.00
59170;BME280;52474;52.236;5.114;2023-04-28T08:24:07;101044.34;;;11.15;100.00
59170;BME280;52474;52.236;5.114;2023-04-28T08:26:36;101017.63;;;11.07;100.00
59170;BME280;52474;52.236;5.114;2023-04-28T08:29:02;101037.25;;;11.15;100.00
59170;BME280;52474;52.236;5.114;2023-04-28T08:31:28;101035.22;;;11.29;100.00
59170;BME280;52474;52.236;5.114;2023-04-28T08:33:54;101017.81;;;11.36;100.00
59170;BME280;52474;52.236;5.114;2023-04-28T08:36:20;101034.81;;;11.54;100.00
59170;BME280;52474;52.236;5.114;2023-04-28T08:38:48;101044.72;;;11.31;100.00
59170;BME280;52474;52.236;5.114;2023-04-28T08:41:15;101037.16;;;11.27;100.00
59170;BME280;52474;52.236;5.114;2023-04-28T08:43:41;101038.25;;;11.45;100.00
59170;BME280;52474;52.236;5.114;2023-04-28T08:46:08;101026.38;;;11.49;100.00
59170;BME280;52474;52.236;5.114;2023-04-28T08:48:40;101033.38;;;11.50;100.00
59170;BME280;52474;52.236;5.114;2023-04-28T08:51:06;101027.81;;;11.53;100.00
59170;BME280;52474;52.236;5.114;2023-04-28T08:53:36;101020.28;;;11.58;100.00
59170;BME280;52474;52.236;5.114;2023-04-28T08:56:03;101030.44;;;11.53;100.00
59170;BME280;52474;52.236;5.114;2023-04-28T08:58:30;101016.47;;;11.51;100.00
59170;BME280;52474;52.236;5.114;2023-04-28T09:00:56;100988.59;;;11.26;100.00
59170;BME280;52474;52.236;5.114;2023-04-28T09:03:21;101017.59;;;11.49;100.00
59170;BME280;52474;52.236;5.114;2023-04-28T09:05:47;101020.28;;;11.58;100.00
59170;BME280;52474;52.236;5.114;2023-04-28T09:08:13;100989.41;;;11.48;100.00
59170;BME280;52474;52.236;5.114;2023-04-28T09:10:40;101018.25;;;11.72;100.00
59170;BME280;52474;52.236;5.114;2023-04-28T09:13:06;101019.03;;;11.93;100.00
59170;BME280;52474;52.236;5.114;2023-04-28T09:15:38;101015.13;;;11.97;100.00
59170;BME280;52474;52.236;5.114;2023-04-28T09:18:07;101016.97;;;11.97;100.00
59170;BME280;52474;52.236;5.114;2023-04-28T09:20:35;101020.06;;;11.81;100.00
59170;BME280;52474;52.236;5.114;2023-04-28T09:23:14;101015.13;;;11.88;100.00
59170;BME280;52474;52.236;5.114;2023-04-28T09:26:03;101000.34;;;11.74;100.00
59170;BME280;52474;52.236;5.114;2023-04-28T09:28:31;101020.72;;;11.64;100.00
59170;BME280;52474;52.236;5.114;2023-04-28T09:30:57;101010.66;;;11.98;100.00
59170;BME280;52474;52.236;5.114;2023-04-28T09:33:24;101018.34;;;11.91;100.00
59170;BME280;52474;52.236;5.114;2023-04-28T09:35:50;101007.34;;;12.15;100.00
59170;BME280;52474;52.236;5.114;2023-04-28T09:38:18;100992.53;;;12.22;100.00
59170;BME280;52474;52.236;5.114;2023-04-28T09:41:01;100997.41;;;11.98;100.00
59170;BME280;52474;52.236;5.114;2023-04-28T09:43:33;101015.91;;;12.29;100.00
59170;BME280;52474;52.236;5.114;2023-04-28T09:46:01;101022.88;;;12.20;100.00
59170;BME280;52474;52.236;5.114;2023-04-28T09:48:36;101014.19;;;12.08;100.00
59170;BME280;52474;52.236;5.114;2023-04-28T09:51:04;101008.19;;;12.06;100.00
59170;BME280;52474;52.236;5.114;2023-04-28T09:53:33;101010.00;;;12.15;100.00
59170;BME280;52474;52.236;5.114;2023-04-28T09:56:02;101009.31;;;12.33;100.00
59170;BME280;52474;52.236;5.114;2023-04-28T09:58:30;101008.09;;;12.37;100.00
59170;BME280;52474;52.236;5.114;2023-04-28T10:00:59;101009.19;;;12.24;100.00
59170;BME280;52474;52.236;5.114;2023-04-28T10:03:27;101009.31;;;12.33;100.00
59170;BME280;52474;52.236;5.114;2023-04-28T10:05:55;101003.59;;;12.28;100.00
59170;BME280;52474;52.236;5.114;2023-04-28T10:08:23;101001.22;;;12.34;100.00
59170;BME280;52474;52.236;5.114;2023-04-28T10:10:51;101005.00;;;12.41;100.00
59170;BME280;52474;52.236;5.114;2023-04-28T10:13:20;101004.72;;;12.44;100.00
59170;BME280;52474;52.236;5.114;2023-04-28T10:15:48;101004.88;;;12.43;100.00
59170;BME280;52474;52.236;5.114;2023-04-28T10:18:14;101002.06;;;12.35;100.00
59170;BME280;52474;52.236;5.114;2023-04-28T10:20:55;101007.38;;;12.44;100.00
59170;BME280;52474;52.236;5.114;2023-04-28T10:25:56;101007.53;;;12.23;100.00
59170;BME280;52474;52.236;5.114;2023-04-28T10:28:25;101013.69;;;12.43;100.00
59170;BME280;52474;52.236;5.114;2023-04-28T10:31:14;101013.69;;;12.34;100.00
59170;BME280;52474;52.236;5.114;2023-04-28T10:33:41;101008.63;;;12.50;100.00
59170;BME280;52474;52.236;5.114;2023-04-28T10:36:07;100955.78;;;12.37;100.00
59170;BME280;52474;52.236;5.114;2023-04-28T10:38:34;101000.53;;;12.81;100.00
59170;BME280;52474;52.236;5.114;2023-04-28T10:41:01;101001.78;;;12.77;100.00
59170;BME280;52474;52.236;5.114;2023-04-28T10:43:35;100986.53;;;12.79;100.00
59170;BME280;52474;52.236;5.114;2023-04-28T10:46:06;101004.72;;;12.93;100.00
59170;BME280;52474;52.236;5.114;2023-04-28T10:56:26;101004.81;;;13.58;100.00
59170;BME280;52474;52.236;5.114;2023-04-28T10:58:53;101003.44;;;13.54;100.00
59170;BME280;52474;52.236;5.114;2023-04-28T11:06:34;100995.47;;;13.54;100.00
59170;BME280;52474;52.236;5.114;2023-04-28T11:16:55;100960.63;;;13.75;100.00
59170;BME280;52474;52.236;5.114;2023-04-28T11:19:26;100983.44;;;13.78;100.00
59170;BME280;52474;52.236;5.114;2023-04-28T11:21:56;100983.34;;;13.69;100.00
59170;BME280;52474;52.236;5.114;2023-04-28T11:24:26;100973.56;;;13.88;100.00
59170;BME280;52474;52.236;5.114;2023-04-28T11:26:56;100971.84;;;13.96;100.00
59170;BME280;52474;52.236;5.114;2023-04-28T11:29:39;100981.56;;;13.88;100.00
59170;BME280;52474;52.236;5.114;2023-04-28T11:32:07;100990.13;;;14.09;100.00
59170;BME280;52474;52.236;5.114;2023-04-28T11:34:33;100993.53;;;14.02;100.00
59170;BME280;52474;52.236;5.114;2023-04-28T11:37:00;100989.47;;;13.98;100.00
59170;BME280;52474;52.236;5.114;2023-04-28T11:39:33;100975.41;;;13.60;100.00
59170;BME280;52474;52.236;5.114;2023-04-28T11:42:01;100992.28;;;13.41;100.00
59170;BME280;52474;52.236;5.114;2023-04-28T11:44:29;100970.47;;;13.37;100.00
59170;BME280;52474;52.236;5.114;2023-04-28T11:46:57;100999.66;;;13.57;100.00
59170;BME280;52474;52.236;5.114;2023-04-28T11:49:27;101000.44;;;13.67;100.00
59170;BME280;52474;52.236;5.114;2023-04-28T11:51:54;101000.44;;;13.67;100.00
59170;BME280;52474;52.236;5.114;2023-04-28T11:54:24;101003.25;;;13.65;100.00
59170;BME280;52474;52.236;5.114;2023-04-28T11:56:52;100993.59;;;13.64;100.00
59170;BME280;52474;52.236;5.114;2023-04-28T11:59:23;101004.38;;;13.90;100.00
59170;BME280;52474;52.236;5.114;2023-04-28T12:02:04;101001.53;;;13.74;100.00
59170;BME280;52474;52.236;5.114;2023-04-28T12:04:33;101006.97;;;14.00;100.00
59170;BME280;52474;52.236;5.114;2023-04-28T12:07:10;100997.19;;;14.01;100.00
59170;BME280;52474;52.236;5.114;2023-04-28T12:12:13;101002.16;;;14.31;100.00
59170;BME280;52474;52.236;5.114;2023-04-28T12:14:59;100997.91;;;14.56;100.00
59170;BME280;52474;52.236;5.114;2023-04-28T12:17:36;101003.91;;;14.23;100.00
59170;BME280;52474;52.236;5.114;2023-04-28T12:20:06;100998.66;;;14.13;100.00
59170;BME280;52474;52.236;5.114;2023-04-28T12:25:13;101014.78;;;14.11;100.00
59170;BME280;52474;52.236;5.114;2023-04-28T12:27:41;101004.75;;;14.23;100.00
59170;BME280;52474;52.236;5.114;2023-04-28T12:32:48;101008.09;;;14.25;100.00
59170;BME280;52474;52.236;5.114;2023-04-28T12:35:14;101014.13;;;14.45;100.00
59170;BME280;52474;52.236;5.114;2023-04-28T12:37:41;101011.13;;;14.12;100.00
59170;BME280;52474;52.236;5.114;2023-04-28T12:40:08;101013.97;;;14.47;100.00
59170;BME280;52474;52.236;5.114;2023-04-28T12:42:34;101015.16;;;14.34;100.00
59170;BME280;52474;52.236;5.114;2023-04-28T12:45:00;100976.22;;;13.88;100.00
59170;BME280;52474;52.236;5.114;2023-04-28T12:47:26;101024.09;;;14.25;100.00
59170;BME280;52474;52.236;5.114;2023-04-28T12:49:52;101012.94;;;14.12;100.00
59170;BME280;52474;52.236;5.114;2023-04-28T12:52:19;101013.81;;;14.30;100.00
59170;BME280;52474;52.236;5.114;2023-04-28T12:54:45;101007.41;;;14.41;100.00
59170;BME280;52474;52.236;5.114;2023-04-28T12:57:17;100972.53;;;14.16;100.00
59170;BME280;52474;52.236;5.114;2023-04-28T12:59:44;101020.34;;;13.90;100.00
59170;BME280;52474;52.236;5.114;2023-04-28T13:02:11;101014.00;;;14.01;100.00
59170;BME280;52474;52.236;5.114;2023-04-28T13:04:37;100961.63;;;13.74;100.00
59170;BME280;52474;52.236;5.114;2023-04-28T13:07:03;101022.50;;;14.05;100.00
59170;BME280;52474;52.236;5.114;2023-04-28T13:09:28;101019.09;;;14.12;100.00
59170;BME280;52474;52.236;5.114;2023-04-28T13:11:55;101028.28;;;14.00;100.00
59170;BME280;52474;52.236;5.114;2023-04-28T13:14:21;101026.63;;;13.99;100.00
59170;BME280;52474;52.236;5.114;2023-04-28T13:16:47;101031.00;;;13.90;100.00
59170;BME280;52474;52.236;5.114;2023-04-28T13:19:13;100984.56;;;13.47;100.00